Time,TemperatureF,DewpointF,PressureIn,WindDirection,WindDirectionDegrees,WindSpeedMPH,WindSpeedGustMPH,Humidity,HourlyPrecipIn,Conditions,Clouds,dailyrainin,SolarRadiationWatts/m^2,SoftwareType,DateUTC
2013-10-03 00:01:00,59.0,57.9,30.08,North,-999,0.0,0.0,96,0.00,,,-99.99,0,WeatherLink 6.0.3,2013-10-03 04:01:00,
2013-10-03 00:03:00,58.9,57.8,30.08,NNW,335,0.0,0.0,96,0.00,,,0.00,0,Wunderground v.1.15,2013-10-03 04:03:00,
2013-10-03 00:09:00,59.0,57.9,30.08,NNW,335,0.0,0.0,96,0.00,,,0.00,0,Wunderground v.1.15,2013-10-03 04:09:00,
2013-10-03 00:15:00,58.9,57.8,30.08,NNW,335,0.0,0.0,96,0.00,,,0.00,0,Wunderground v.1.15,2013-10-03 04:15:00,
2013-10-03 00:21:00,58.8,57.7,30.08,NNW,335,0.0,0.0,96,0.00,,,0.00,0,Wunderground v.1.15,2013-10-03 04:21:00,
2013-10-03 00:22:00,58.8,58.0,30.08,NNW,335,0.0,0.0,97,0.00,,,0.00,0,Wunderground v.1.15,2013-10-03 04:22:00,
2013-10-03 00:28:00,58.7,57.6,30.08,NNW,335,0.0,0.0,96,0.00,,,0.00,0,Wunderground v.1.15,2013-10-03 04:28:00,
2013-10-03 00:33:00,58.5,57.4,30.08,NNW,335,0.0,0.0,96,0.00,,,0.00,0,Wunderground v.1.15,2013-10-03 04:33:00,
2013-10-03 00:39:00,58.4,57.3,30.08,NNW,335,0.0,0.0,96,0.00,,,0.00,0,Wunderground v.1.15,2013-10-03 04:39:00,
2013-10-03 00:45:00,58.2,57.1,30.08,NNW,335,0.0,0.0,96,0.00,,,0.00,0,Wunderground v.1.15,2013-10-03 04:45:00,
2013-10-03 00:51:00,58.1,57.3,30.08,NNW,335,0.0,0.0,97,0.00,,,0.00,0,Wunderground v.1.15,2013-10-03 04:51:00,
2013-10-03 00:57:00,58.0,57.2,30.08,NNW,335,0.0,0.0,97,0.00,,,0.00,0,Wunderground v.1.15,2013-10-03 04:57:00,
2013-10-03 01:02:00,57.9,56.8,30.08,NNW,335,0.0,0.0,96,0.00,,,0.00,0,Wunderground v.1.15,2013-10-03 05:02:00,
2013-10-03 01:08:00,57.8,56.7,30.08,NNW,335,0.0,0.0,96,0.00,,,0.00,0,Wunderground v.1.15,2013-10-03 05:08:00,
2013-10-03 01:13:00,57.6,56.5,30.08,NNW,335,0.0,0.0,96,0.00,,,0.00,0,Wunderground v.1.15,2013-10-03 05:13:00,
2013-10-03 01:18:00,57.5,56.7,30.09,NNW,335,0.0,0.0,97,0.00,,,0.00,0,Wunderground v.1.15,2013-10-03 05:18:00,
2013-10-03 01:24:00,57.4,56.6,30.09,NNW,335,0.0,0.0,97,0.00,,,0.00,0,Wunderground v.1.15,2013-10-03 05:24:00,
2013-10-03 01:30:00,57.3,56.2,30.09,NNW,335,0.0,0.0,96,0.00,,,0.00,0,Wunderground v.1.15,2013-10-03 05:30:00,
2013-10-03 01:37:00,57.2,56.1,30.08,NNW,335,0.0,0.0,96,0.00,,,0.00,0,Wunderground v.1.15,2013-10-03 05:37:00,
2013-10-03 01:42:00,57.1,56.0,30.09,NNW,335,0.0,0.0,96,0.00,,,0.00,0,Wunderground v.1.15,2013-10-03 05:42:00,
2013-10-03 01:48:00,57.1,56.3,30.08,NNW,335,0.0,0.0,97,0.00,,,0.00,0,Wunderground v.1.15,2013-10-03 05:48:00,
2013-10-03 01:53:00,57.1,56.3,30.08,NNW,335,0.0,0.0,97,0.00,,,0.00,0,Wunderground v.1.15,2013-10-03 05:53:00,
2013-10-03 01:59:00,57.0,56.2,30.08,NNW,335,0.0,0.0,97,0.00,,,0.00,0,Wunderground v.1.15,2013-10-03 05:59:00,
2013-10-03 02:04:00,56.9,56.1,30.09,NNW,335,0.0,0.0,97,0.00,,,0.00,0,Wunderground v.1.15,2013-10-03 06:04:00,
2013-10-03 02:11:00,56.9,56.1,30.09,NNW,335,0.0,0.0,97,0.00,,,0.00,0,Wunderground v.1.15,2013-10-03 06:11:00,
2013-10-03 02:17:00,56.7,55.9,30.09,NNW,335,0.0,0.0,97,0.00,,,0.00,0,Wunderground v.1.15,2013-10-03 06:17:00,
2013-10-03 02:22:00,56.6,55.8,30.09,NNW,335,0.0,0.0,97,0.00,,,0.00,0,Wunderground v.1.15,2013-10-03 06:22:00,
2013-10-03 02:28:00,56.5,55.7,30.09,NNW,335,0.0,0.0,97,0.00,,,0.00,0,Wunderground v.1.15,2013-10-03 06:28:00,
2013-10-03 02:34:00,56.7,55.9,30.09,NNW,335,0.0,0.0,97,0.00,,,0.00,0,Wunderground v.1.15,2013-10-03 06:34:00,
2013-10-03 02:39:00,56.7,55.9,30.09,NNW,335,0.0,0.0,97,0.00,,,0.00,0,Wunderground v.1.15,2013-10-03 06:39:00,
2013-10-03 02:45:00,56.6,55.8,30.08,NNW,335,0.0,0.0,97,0.00,,,0.00,0,Wunderground v.1.15,2013-10-03 06:45:00,
2013-10-03 02:50:00,56.6,55.8,30.08,NNW,335,0.0,0.0,97,0.00,,,0.00,0,Wunderground v.1.15,2013-10-03 06:50:00,
2013-10-03 02:56:00,56.6,55.8,30.08,NNW,335,0.0,0.0,97,0.00,,,0.00,0,Wunderground v.1.15,2013-10-03 06:56:00,
2013-10-03 03:01:00,56.5,55.7,30.08,North,-999,0.0,0.0,97,0.00,,,-99.99,0,WeatherLink 6.0.3,2013-10-03 07:01:00,
2013-10-03 03:06:00,56.4,55.6,30.08,NNW,335,0.0,0.0,97,0.00,,,0.00,0,Wunderground v.1.15,2013-10-03 07:06:00,
2013-10-03 03:11:00,56.4,55.6,30.09,NNW,335,0.0,0.0,97,0.00,,,0.00,0,Wunderground v.1.15,2013-10-03 07:11:00,
2013-10-03 03:17:00,56.3,55.5,30.09,NNW,335,0.0,0.0,97,0.00,,,0.00,0,Wunderground v.1.15,2013-10-03 07:17:00,
2013-10-03 03:23:00,56.1,55.3,30.09,NNW,335,0.0,0.0,97,0.00,,,0.00,0,Wunderground v.1.15,2013-10-03 07:23:00,
2013-10-03 03:28:00,56.1,55.3,30.08,NNW,335,0.0,0.0,97,0.00,,,0.00,0,Wunderground v.1.15,2013-10-03 07:28:00,
2013-10-03 03:34:00,56.1,55.3,30.08,NNW,335,0.0,0.0,97,0.00,,,0.00,0,Wunderground v.1.15,2013-10-03 07:34:00,
2013-10-03 03:40:00,56.0,55.2,30.08,NNW,335,0.0,0.0,97,0.00,,,0.00,0,Wunderground v.1.15,2013-10-03 07:40:00,
2013-10-03 03:46:00,55.9,55.1,30.08,NNW,335,0.0,0.0,97,0.00,,,0.00,0,Wunderground v.1.15,2013-10-03 07:46:00,
2013-10-03 03:52:00,56.0,55.2,30.08,NNW,335,0.0,0.0,97,0.00,,,0.00,0,Wunderground v.1.15,2013-10-03 07:52:00,
2013-10-03 03:57:00,56.1,55.3,30.08,NNW,335,0.0,0.0,97,0.00,,,0.00,0,Wunderground v.1.15,2013-10-03 07:57:00,
2013-10-03 04:03:00,56.0,55.2,30.08,NNW,335,0.0,0.0,97,0.00,,,0.00,0,Wunderground v.1.15,2013-10-03 08:03:00,
2013-10-03 04:07:00,56.0,55.2,30.08,NNW,335,0.0,0.0,97,0.00,,,0.00,0,Wunderground v.1.15,2013-10-03 08:07:00,
2013-10-03 04:13:00,56.0,55.2,30.08,NNW,335,0.0,0.0,97,0.00,,,0.00,0,Wunderground v.1.15,2013-10-03 08:13:00,
2013-10-03 04:19:00,56.0,55.2,30.08,NNW,335,0.0,0.0,97,0.00,,,0.00,0,Wunderground v.1.15,2013-10-03 08:19:00,
2013-10-03 04:24:00,56.0,55.2,30.08,NNW,335,0.0,0.0,97,0.00,,,0.00,0,Wunderground v.1.15,2013-10-03 08:24:00,
2013-10-03 04:31:00,55.9,55.1,30.08,NNW,335,0.0,0.0,97,0.00,,,0.00,0,Wunderground v.1.15,2013-10-03 08:31:00,
2013-10-03 04:36:00,55.9,55.1,30.09,NNW,335,0.0,0.0,97,0.00,,,0.00,0,Wunderground v.1.15,2013-10-03 08:36:00,
2013-10-03 04:42:00,55.8,55.0,30.09,NNW,335,0.0,0.0,97,0.00,,,0.00,0,Wunderground v.1.15,2013-10-03 08:42:00,
2013-10-03 04:47:00,55.7,54.9,30.09,NNW,335,0.0,0.0,97,0.00,,,0.00,0,Wunderground v.1.15,2013-10-03 08:47:00,
2013-10-03 04:54:00,55.5,54.7,30.09,NNW,335,0.0,0.0,97,0.00,,,0.00,0,Wunderground v.1.15,2013-10-03 08:54:00,
2013-10-03 04:59:00,55.4,54.6,30.09,NNW,335,0.0,0.0,97,0.00,,,0.00,0,Wunderground v.1.15,2013-10-03 08:59:00,
2013-10-03 05:05:00,55.3,54.5,30.09,NNW,335,0.0,0.0,97,0.00,,,0.00,0,Wunderground v.1.15,2013-10-03 09:05:00,
2013-10-03 05:11:00,55.3,54.5,30.09,NNW,335,0.0,0.0,97,0.00,,,0.00,0,Wunderground v.1.15,2013-10-03 09:11:00,
2013-10-03 05:16:00,55.2,54.4,30.09,NNW,335,0.0,0.0,97,0.00,,,0.00,0,Wunderground v.1.15,2013-10-03 09:16:00,
2013-10-03 05:22:00,55.3,54.5,30.09,NNW,335,0.0,0.0,97,0.00,,,0.00,0,Wunderground v.1.15,2013-10-03 09:22:00,
2013-10-03 05:27:00,55.2,54.4,30.09,NNW,335,0.0,0.0,97,0.00,,,0.00,0,Wunderground v.1.15,2013-10-03 09:27:00,
2013-10-03 05:34:00,55.2,54.4,30.09,NNW,335,0.0,0.0,97,0.00,,,0.00,0,Wunderground v.1.15,2013-10-03 09:34:00,
2013-10-03 05:39:00,55.1,54.3,30.09,NNW,335,0.0,0.0,97,0.00,,,0.00,0,Wunderground v.1.15,2013-10-03 09:39:00,
2013-10-03 05:45:00,55.1,54.3,30.09,NNW,335,0.0,0.0,97,0.00,,,0.00,0,Wunderground v.1.15,2013-10-03 09:45:00,
2013-10-03 05:50:00,55.1,54.3,30.09,NNW,335,0.0,0.0,97,0.00,,,0.00,0,Wunderground v.1.15,2013-10-03 09:50:00,
2013-10-03 05:57:00,55.3,54.7,30.08,NNW,335,0.0,0.0,98,0.00,,,0.00,0,Wunderground v.1.15,2013-10-03 09:57:00,
2013-10-03 06:02:00,55.5,54.7,30.09,NNW,335,0.0,0.0,97,0.00,,,0.00,0,Wunderground v.1.15,2013-10-03 10:02:00,
2013-10-03 06:07:00,55.6,54.8,30.09,NNW,335,0.0,0.0,97,0.00,,,0.00,0,Wunderground v.1.15,2013-10-03 10:07:00,
2013-10-03 06:13:00,55.7,54.9,30.09,NNW,335,0.0,0.0,97,0.00,,,0.00,0,Wunderground v.1.15,2013-10-03 10:13:00,
2013-10-03 06:18:00,55.6,54.8,30.09,NNW,335,0.0,0.0,97,0.00,,,0.00,0,Wunderground v.1.15,2013-10-03 10:18:00,
2013-10-03 06:24:00,55.7,54.9,30.09,NNW,335,0.0,0.0,97,0.00,,,0.00,0,Wunderground v.1.15,2013-10-03 10:24:00,
2013-10-03 06:30:00,55.6,54.8,30.09,NNW,335,0.0,0.0,97,0.00,,,0.00,0,Wunderground v.1.15,2013-10-03 10:30:00,
2013-10-03 06:35:00,55.6,54.8,30.09,NNW,335,0.0,0.0,97,0.00,,,0.00,0,Wunderground v.1.15,2013-10-03 10:35:00,
2013-10-03 06:41:00,55.7,54.9,30.09,NNW,335,0.0,0.0,97,0.00,,,0.00,0,Wunderground v.1.15,2013-10-03 10:41:00,
2013-10-03 06:46:00,55.7,54.9,30.10,NNW,335,0.0,0.0,97,0.00,,,0.00,0,Wunderground v.1.15,2013-10-03 10:46:00,
2013-10-03 06:52:00,55.7,54.9,30.10,NNW,335,0.0,0.0,97,0.00,,,0.00,0,Wunderground v.1.15,2013-10-03 10:52:00,
2013-10-03 06:57:00,55.7,54.9,30.10,NNW,335,0.0,0.0,97,0.00,,,0.00,0,Wunderground v.1.15,2013-10-03 10:57:00,
2013-10-03 07:03:00,55.6,54.8,30.10,NNW,335,0.0,0.0,97,0.00,,,0.00,0,Wunderground v.1.15,2013-10-03 11:03:00,
2013-10-03 07:09:00,55.6,54.8,30.10,NNW,335,0.0,0.0,97,0.00,,,0.00,0,Wunderground v.1.15,2013-10-03 11:09:00,
2013-10-03 07:14:00,55.6,54.8,30.10,NNW,335,0.0,0.0,97,0.00,,,0.00,0,Wunderground v.1.15,2013-10-03 11:14:00,
2013-10-03 07:21:00,55.5,54.7,30.10,NNW,335,0.0,0.0,97,0.00,,,0.00,0,Wunderground v.1.15,2013-10-03 11:21:00,
2013-10-03 07:26:00,55.6,54.8,30.10,NNW,335,0.0,0.0,97,0.00,,,0.00,5,Wunderground v.1.15,2013-10-03 11:26:00,
2013-10-03 07:33:00,55.8,55.2,30.10,NNW,335,0.0,0.0,98,0.00,,,0.00,11,Wunderground v.1.15,2013-10-03 11:33:00,
2013-10-03 07:38:00,56.1,55.5,30.09,NNW,335,0.0,0.0,98,0.00,,,0.00,16,Wunderground v.1.15,2013-10-03 11:38:00,
2013-10-03 07:45:00,56.5,55.9,30.10,NNW,335,0.0,0.0,98,0.00,,,0.00,23,Wunderground v.1.15,2013-10-03 11:45:00,
2013-10-03 07:50:00,56.8,56.2,30.10,NNW,335,0.0,0.0,98,0.00,,,0.00,32,Wunderground v.1.15,2013-10-03 11:50:00,
2013-10-03 07:56:00,57.1,56.5,30.10,NNW,335,0.0,0.0,98,0.00,,,0.00,47,Wunderground v.1.15,2013-10-03 11:56:00,
2013-10-03 08:01:00,57.3,56.7,30.10,North,-999,0.0,0.0,98,0.00,,,-99.99,27,WeatherLink 6.0.3,2013-10-03 12:01:00,
2013-10-03 08:07:00,57.8,57.2,30.10,NNW,335,0.0,0.0,98,0.00,,,0.00,51,Wunderground v.1.15,2013-10-03 12:07:00,
2013-10-03 08:14:00,58.4,57.8,30.10,NNW,335,0.0,0.0,98,0.00,,,0.00,42,Wunderground v.1.15,2013-10-03 12:14:00,
2013-10-03 08:19:00,58.9,58.3,30.10,NNW,335,0.0,0.0,98,0.00,,,0.00,51,Wunderground v.1.15,2013-10-03 12:19:00,
2013-10-03 08:26:00,59.5,58.9,30.10,NNW,335,0.0,0.0,98,0.00,,,0.00,62,Wunderground v.1.15,2013-10-03 12:26:00,
2013-10-03 08:31:00,60.0,59.4,30.10,North,-999,0.0,0.0,98,0.00,,,-99.99,53,WeatherLink 6.0.3,2013-10-03 12:31:00,
2013-10-03 08:36:00,60.4,59.8,30.10,NNW,335,0.0,0.0,98,0.00,,,0.00,83,Wunderground v.1.15,2013-10-03 12:36:00,
2013-10-03 08:42:00,60.9,60.3,30.10,NNW,335,0.0,0.0,98,0.00,,,0.00,65,Wunderground v.1.15,2013-10-03 12:42:00,
2013-10-03 08:47:00,61.4,60.8,30.10,NNW,335,0.0,0.0,98,0.00,,,0.00,56,Wunderground v.1.15,2013-10-03 12:47:00,
2013-10-03 08:53:00,61.9,61.3,30.10,NNW,335,0.0,0.0,98,0.00,,,0.00,76,Wunderground v.1.15,2013-10-03 12:53:00,
2013-10-03 08:58:00,62.3,62.0,30.10,NNW,335,0.0,0.0,99,0.00,,,0.00,98,Wunderground v.1.15,2013-10-03 12:58:00,
2013-10-03 09:04:00,62.7,62.1,30.10,NNW,335,0.0,0.0,98,0.00,,,0.00,116,Wunderground v.1.15,2013-10-03 13:04:00,
2013-10-03 09:10:00,63.2,62.9,30.10,NNW,335,0.0,0.0,99,0.00,,,0.00,127,Wunderground v.1.15,2013-10-03 13:10:00,
2013-10-03 09:15:00,63.8,63.5,30.10,NNW,335,0.0,0.0,99,0.00,,,0.00,132,Wunderground v.1.15,2013-10-03 13:15:00,
2013-10-03 09:21:00,64.3,64.0,30.10,NNW,335,0.0,0.0,99,0.00,,,0.00,128,Wunderground v.1.15,2013-10-03 13:21:00,
2013-10-03 09:27:00,64.8,64.5,30.10,NNW,335,0.0,0.0,99,0.00,,,0.00,95,Wunderground v.1.15,2013-10-03 13:27:00,
2013-10-03 09:33:00,65.3,65.0,30.10,NNW,335,0.0,0.0,99,0.00,,,0.00,111,Wunderground v.1.15,2013-10-03 13:33:00,
2013-10-03 09:39:00,65.6,65.3,30.10,NNW,335,0.0,0.0,99,0.00,,,0.00,158,Wunderground v.1.15,2013-10-03 13:39:00,
2013-10-03 09:44:00,66.1,65.8,30.10,NNW,335,0.0,0.0,99,0.00,,,0.00,167,Wunderground v.1.15,2013-10-03 13:44:00,
2013-10-03 09:50:00,66.5,66.2,30.10,NNW,335,0.0,0.0,99,0.00,,,0.00,163,Wunderground v.1.15,2013-10-03 13:50:00,
2013-10-03 09:56:00,66.9,66.6,30.10,NNW,334,0.0,0.0,99,0.00,,,0.00,137,Wunderground v.1.15,2013-10-03 13:56:00,
2013-10-03 10:01:00,67.4,66.8,30.10,NNW,337,0.0,1.0,98,0.00,,,-99.99,151,WeatherLink 6.0.3,2013-10-03 14:01:00,
2013-10-03 10:06:00,67.9,67.0,30.10,NNW,334,0.0,0.0,97,0.00,,,0.00,135,Wunderground v.1.15,2013-10-03 14:06:00,
2013-10-03 10:11:00,68.4,66.6,30.10,NNW,334,0.0,0.0,94,0.00,,,0.00,234,Wunderground v.1.15,2013-10-03 14:11:00,
2013-10-03 10:16:00,68.9,66.8,30.10,NNW,334,0.0,0.0,93,0.00,,,0.00,271,Wunderground v.1.15,2013-10-03 14:16:00,
2013-10-03 10:22:00,69.6,66.9,30.10,NNW,334,0.0,0.0,91,0.00,,,0.00,185,Wunderground v.1.15,2013-10-03 14:22:00,
2013-10-03 10:27:00,70.1,66.7,30.10,NNW,334,0.0,1.0,89,0.00,,,0.00,132,Wunderground v.1.15,2013-10-03 14:27:00,
2013-10-03 10:33:00,70.2,66.1,30.10,WNW,300,0.0,0.0,87,0.00,,,0.00,107,Wunderground v.1.15,2013-10-03 14:33:00,
2013-10-03 10:38:00,70.4,66.3,30.09,SSE,148,0.0,0.0,87,0.00,,,0.00,123,Wunderground v.1.15,2013-10-03 14:38:00,
2013-10-03 10:44:00,70.7,67.0,30.09,SSE,153,0.0,1.0,88,0.00,,,0.00,285,Wunderground v.1.15,2013-10-03 14:44:00,
2013-10-03 10:50:00,71.5,67.4,30.09,SSE,155,0.0,0.0,87,0.00,,,0.00,285,Wunderground v.1.15,2013-10-03 14:50:00,
2013-10-03 10:56:00,72.4,68.3,30.10,SSE,155,0.0,0.0,87,0.00,,,0.00,322,Wunderground v.1.15,2013-10-03 14:56:00,
2013-10-03 11:01:00,73.3,67.5,30.10,SSE,157,0.0,4.0,82,0.00,,,-99.99,226,WeatherLink 6.0.3,2013-10-03 15:01:00,
2013-10-03 11:08:00,74.3,69.1,30.09,NNW,345,0.0,1.0,84,0.00,,,0.00,388,Wunderground v.1.15,2013-10-03 15:08:00,
2013-10-03 11:13:00,74.9,68.3,30.09,SSW,200,0.0,0.0,80,0.00,,,0.00,330,Wunderground v.1.15,2013-10-03 15:13:00,
2013-10-03 11:19:00,75.1,68.5,30.09,WSW,248,0.0,0.0,80,0.00,,,0.00,142,Wunderground v.1.15,2013-10-03 15:19:00,
2013-10-03 11:25:00,74.9,67.9,30.09,WSW,248,0.0,0.0,79,0.00,,,0.00,202,Wunderground v.1.15,2013-10-03 15:25:00,
2013-10-03 11:30:00,74.6,68.0,30.09,WSW,248,0.0,0.0,80,0.00,,,0.00,243,Wunderground v.1.15,2013-10-03 15:30:00,
2013-10-03 11:37:00,74.8,68.6,30.09,WSW,248,0.0,0.0,81,0.00,,,0.00,448,Wunderground v.1.15,2013-10-03 15:37:00,
2013-10-03 11:42:00,75.3,68.3,30.08,SW,232,0.0,0.0,79,0.00,,,0.00,503,Wunderground v.1.15,2013-10-03 15:42:00,
2013-10-03 11:49:00,76.0,68.3,30.08,West,264,0.0,1.0,77,0.00,,,0.00,225,Wunderground v.1.15,2013-10-03 15:49:00,
2013-10-03 11:54:00,76.0,67.5,30.08,South,191,0.0,3.0,75,0.00,,,0.00,257,Wunderground v.1.15,2013-10-03 15:54:00,
2013-10-03 12:00:00,75.9,68.2,30.08,South,187,0.0,0.0,77,0.00,,,0.00,353,Wunderground v.1.15,2013-10-03 16:00:00,
2013-10-03 12:06:00,76.0,68.3,30.08,South,187,0.0,0.0,77,0.00,,,0.00,302,Wunderground v.1.15,2013-10-03 16:06:00,
2013-10-03 12:11:00,76.2,67.7,30.08,South,190,0.0,0.0,75,0.00,,,0.00,336,Wunderground v.1.15,2013-10-03 16:11:00,
2013-10-03 12:16:00,76.5,68.0,30.08,West,266,0.0,0.0,75,0.00,,,0.00,313,Wunderground v.1.15,2013-10-03 16:16:00,
2013-10-03 12:22:00,76.6,68.5,30.08,West,261,0.0,0.0,76,0.00,,,0.00,294,Wunderground v.1.15,2013-10-03 16:22:00,
2013-10-03 12:27:00,76.6,68.8,30.08,WSW,258,0.0,1.0,77,0.00,,,0.00,316,Wunderground v.1.15,2013-10-03 16:27:00,
2013-10-03 12:34:00,76.7,68.9,30.07,WSW,243,0.0,1.0,77,0.00,,,0.00,262,Wunderground v.1.15,2013-10-03 16:34:00,
2013-10-03 12:39:00,76.7,68.2,30.07,SW,227,0.0,1.0,75,0.00,,,0.00,199,Wunderground v.1.15,2013-10-03 16:39:00,
2013-10-03 12:45:00,76.5,68.0,30.07,SW,226,0.0,0.0,75,0.00,,,0.00,243,Wunderground v.1.15,2013-10-03 16:45:00,
2013-10-03 12:50:00,76.4,68.7,30.07,SW,218,0.0,0.0,77,0.00,,,0.00,276,Wunderground v.1.15,2013-10-03 16:50:00,
2013-10-03 12:56:00,76.5,69.5,30.07,SW,218,0.0,0.0,79,0.00,,,0.00,246,Wunderground v.1.15,2013-10-03 16:56:00,
2013-10-03 13:01:00,76.7,68.6,30.07,SW,225,0.0,3.0,76,0.00,,,-99.99,246,WeatherLink 6.0.3,2013-10-03 17:01:00,
2013-10-03 13:08:00,76.7,68.6,30.07,SW,225,0.0,0.0,76,0.00,,,0.00,401,Wunderground v.1.15,2013-10-03 17:08:00,
2013-10-03 13:13:00,77.0,68.5,30.07,SW,225,0.0,1.0,75,0.00,,,0.00,204,Wunderground v.1.15,2013-10-03 17:13:00,
2013-10-03 13:18:00,77.0,68.9,30.06,SW,225,0.0,1.0,76,0.00,,,0.00,274,Wunderground v.1.15,2013-10-03 17:18:00,
2013-10-03 13:25:00,77.0,69.2,30.06,SW,218,0.0,0.0,77,0.00,,,0.00,360,Wunderground v.1.15,2013-10-03 17:25:00,
2013-10-03 13:30:00,77.2,69.0,30.06,SSW,205,0.0,0.0,76,0.00,,,0.00,292,Wunderground v.1.15,2013-10-03 17:30:00,
2013-10-03 13:37:00,77.1,68.2,30.06,SW,227,0.0,1.0,74,0.00,,,0.00,213,Wunderground v.1.15,2013-10-03 17:37:00,
2013-10-03 13:42:00,76.9,68.4,30.06,SW,227,0.0,0.0,75,0.00,,,0.00,290,Wunderground v.1.15,2013-10-03 17:42:00,
2013-10-03 13:48:00,76.9,68.4,30.06,South,177,0.0,2.0,75,0.00,,,0.00,448,Wunderground v.1.15,2013-10-03 17:48:00,
2013-10-03 13:53:00,77.3,69.1,30.05,SSW,200,0.0,1.0,76,0.00,,,0.00,527,Wunderground v.1.15,2013-10-03 17:53:00,
2013-10-03 13:59:00,77.6,69.4,30.05,SSW,192,0.0,1.0,76,0.00,,,0.00,385,Wunderground v.1.15,2013-10-03 17:59:00,
2013-10-03 14:06:00,77.7,68.4,30.05,SW,218,0.0,1.0,73,0.00,,,0.00,482,Wunderground v.1.15,2013-10-03 18:06:00,
2013-10-03 14:11:00,77.7,68.4,30.05,NNE,19,0.0,1.0,73,0.00,,,0.00,183,Wunderground v.1.15,2013-10-03 18:11:00,
2013-10-03 14:16:00,77.5,68.2,30.05,South,185,0.0,1.0,73,0.00,,,0.00,174,Wunderground v.1.15,2013-10-03 18:16:00,
2013-10-03 14:23:00,77.1,68.2,30.04,South,185,0.0,1.0,74,0.00,,,0.00,144,Wunderground v.1.15,2013-10-03 18:23:00,
2013-10-03 14:28:00,76.9,69.1,30.04,South,185,0.0,1.0,77,0.00,,,0.00,190,Wunderground v.1.15,2013-10-03 18:28:00,
2013-10-03 14:34:00,76.9,69.5,30.04,South,185,0.0,0.0,78,0.00,,,0.00,178,Wunderground v.1.15,2013-10-03 18:34:00,
2013-10-03 14:39:00,76.7,68.6,30.04,South,185,0.0,0.0,76,0.00,,,0.00,169,Wunderground v.1.15,2013-10-03 18:39:00,
2013-10-03 14:45:00,76.6,68.8,30.04,South,185,0.0,0.0,77,0.00,,,0.00,207,Wunderground v.1.15,2013-10-03 18:45:00,
2013-10-03 14:52:00,76.6,68.8,30.04,South,185,0.0,0.0,77,0.00,,,0.00,221,Wunderground v.1.15,2013-10-03 18:52:00,
2013-10-03 14:57:00,76.5,68.7,30.04,South,188,0.0,1.0,77,0.00,,,0.00,227,Wunderground v.1.15,2013-10-03 18:57:00,
2013-10-03 15:04:00,76.5,69.1,30.04,South,183,0.0,0.0,78,0.00,,,0.00,207,Wunderground v.1.15,2013-10-03 19:04:00,
2013-10-03 15:09:00,76.4,68.7,30.04,South,185,0.0,0.0,77,0.00,,,0.00,202,Wunderground v.1.15,2013-10-03 19:09:00,
2013-10-03 15:15:00,76.3,68.6,30.03,South,186,0.0,1.0,77,0.00,,,0.00,211,Wunderground v.1.15,2013-10-03 19:15:00,
2013-10-03 15:21:00,76.4,68.7,30.03,South,186,0.0,0.0,77,0.00,,,0.00,179,Wunderground v.1.15,2013-10-03 19:21:00,
2013-10-03 15:26:00,76.4,68.7,30.03,South,186,0.0,0.0,77,0.00,,,0.00,185,Wunderground v.1.15,2013-10-03 19:26:00,
2013-10-03 15:31:00,76.6,69.2,30.03,South,186,0.0,0.0,78,0.00,,,0.00,195,Wunderground v.1.15,2013-10-03 19:31:00,
2013-10-03 15:38:00,76.7,69.3,30.03,South,186,0.0,0.0,78,0.00,,,0.00,188,Wunderground v.1.15,2013-10-03 19:38:00,
2013-10-03 15:43:00,76.6,68.5,30.03,SSW,201,0.0,0.0,76,0.00,,,0.00,176,Wunderground v.1.15,2013-10-03 19:43:00,
2013-10-03 15:50:00,76.6,69.2,30.03,SSW,201,0.0,0.0,78,0.00,,,0.00,174,Wunderground v.1.15,2013-10-03 19:50:00,
2013-10-03 15:55:00,76.5,68.7,30.02,SSW,201,0.0,0.0,77,0.00,,,0.00,195,Wunderground v.1.15,2013-10-03 19:55:00,
2013-10-03 16:00:00,76.5,68.7,30.02,SSW,201,0.0,0.0,77,0.00,,,0.00,195,Wunderground v.1.15,2013-10-03 20:00:00,
2013-10-03 16:06:00,76.5,69.1,30.02,SSW,202,0.0,0.0,78,0.00,,,0.00,214,Wunderground v.1.15,2013-10-03 20:06:00,
2013-10-03 16:12:00,76.6,68.5,30.02,West,261,0.0,0.0,76,0.00,,,0.00,255,Wunderground v.1.15,2013-10-03 20:12:00,
2013-10-03 16:17:00,76.7,68.2,30.02,West,261,0.0,0.0,75,0.00,,,0.00,230,Wunderground v.1.15,2013-10-03 20:17:00,
2013-10-03 16:23:00,77.1,69.3,30.02,West,259,0.0,0.0,77,0.00,,,0.00,272,Wunderground v.1.15,2013-10-03 20:23:00,
2013-10-03 16:29:00,77.3,69.1,30.02,WNW,290,0.0,0.0,76,0.00,,,0.00,329,Wunderground v.1.15,2013-10-03 20:29:00,
2013-10-03 16:36:00,77.6,69.0,30.02,WNW,288,0.0,1.0,75,0.00,,,0.00,169,Wunderground v.1.15,2013-10-03 20:36:00,
2013-10-03 16:41:00,77.8,69.2,30.02,SW,236,0.0,1.0,75,0.00,,,0.00,135,Wunderground v.1.15,2013-10-03 20:41:00,
2013-10-03 16:47:00,77.8,68.8,30.01,South,191,0.0,2.0,74,0.00,,,0.00,105,Wunderground v.1.15,2013-10-03 20:47:00,
2013-10-03 16:52:00,77.8,69.6,30.02,WSW,248,0.0,0.0,76,0.00,,,0.00,86,Wunderground v.1.15,2013-10-03 20:52:00,
2013-10-03 16:58:00,77.7,69.5,30.02,WSW,248,0.0,0.0,76,0.00,,,0.00,67,Wunderground v.1.15,2013-10-03 20:58:00,
2013-10-03 17:04:00,77.7,69.5,30.02,WSW,248,0.0,0.0,76,0.00,,,0.00,93,Wunderground v.1.15,2013-10-03 21:04:00,
2013-10-03 17:09:00,77.7,69.1,30.02,WSW,254,0.0,0.0,75,0.00,,,0.00,174,Wunderground v.1.15,2013-10-03 21:09:00,
2013-10-03 17:14:00,77.8,69.6,30.01,WSW,252,0.0,0.0,76,0.00,,,0.00,155,Wunderground v.1.15,2013-10-03 21:14:00,
2013-10-03 17:20:00,77.8,70.0,30.02,WSW,252,0.0,0.0,77,0.00,,,0.00,113,Wunderground v.1.15,2013-10-03 21:20:00,
2013-10-03 17:26:00,77.9,70.5,30.02,WSW,252,0.0,0.0,78,0.00,,,0.00,93,Wunderground v.1.15,2013-10-03 21:26:00,
2013-10-03 17:31:00,77.9,70.1,30.02,WSW,252,0.0,0.0,77,0.00,,,0.00,77,Wunderground v.1.15,2013-10-03 21:31:00,
2013-10-03 17:36:00,77.8,70.4,30.01,WSW,252,0.0,0.0,78,0.00,,,0.00,69,Wunderground v.1.15,2013-10-03 21:36:00,
2013-10-03 17:42:00,77.5,69.7,30.01,WSW,246,0.0,0.0,77,0.00,,,0.00,69,Wunderground v.1.15,2013-10-03 21:42:00,
2013-10-03 17:48:00,77.3,69.9,30.02,WSW,246,0.0,0.0,78,0.00,,,0.00,54,Wunderground v.1.15,2013-10-03 21:48:00,
2013-10-03 17:53:00,77.0,69.2,30.01,WSW,246,0.0,0.0,77,0.00,,,0.00,47,Wunderground v.1.15,2013-10-03 21:53:00,
2013-10-03 17:59:00,76.7,69.3,30.01,WSW,246,0.0,0.0,78,0.00,,,0.00,46,Wunderground v.1.15,2013-10-03 21:59:00,
2013-10-03 18:04:00,76.4,69.4,30.01,WSW,246,0.0,0.0,79,0.00,,,0.00,33,Wunderground v.1.15,2013-10-03 22:04:00,
2013-10-03 18:10:00,76.1,69.5,30.01,WSW,246,0.0,0.0,80,0.00,,,0.00,16,Wunderground v.1.15,2013-10-03 22:10:00,
2013-10-03 18:16:00,75.7,69.5,30.01,WSW,246,0.0,0.0,81,0.00,,,0.00,11,Wunderground v.1.15,2013-10-03 22:16:00,
2013-10-03 18:21:00,75.2,69.7,30.01,WSW,246,0.0,0.0,83,0.00,,,0.00,9,Wunderground v.1.15,2013-10-03 22:21:00,
2013-10-03 18:27:00,74.3,69.1,30.01,WSW,246,0.0,0.0,84,0.00,,,0.00,7,Wunderground v.1.15,2013-10-03 22:27:00,
2013-10-03 18:33:00,73.5,68.7,30.02,WSW,246,0.0,0.0,85,0.00,,,0.00,5,Wunderground v.1.15,2013-10-03 22:33:00,
2013-10-03 18:39:00,72.8,68.4,30.02,WSW,246,0.0,0.0,86,0.00,,,0.00,5,Wunderground v.1.15,2013-10-03 22:39:00,
2013-10-03 18:44:00,72.1,68.0,30.02,WSW,246,0.0,0.0,87,0.00,,,0.00,0,Wunderground v.1.15,2013-10-03 22:44:00,
2013-10-03 18:51:00,71.3,67.2,30.02,WSW,246,0.0,0.0,87,0.00,,,0.00,0,Wunderground v.1.15,2013-10-03 22:51:00,
2013-10-03 18:56:00,70.6,66.9,30.02,WSW,246,0.0,0.0,88,0.00,,,0.00,0,Wunderground v.1.15,2013-10-03 22:56:00,
2013-10-03 19:02:00,70.1,66.7,30.02,WSW,246,0.0,0.0,89,0.00,,,0.00,0,Wunderground v.1.15,2013-10-03 23:02:00,
2013-10-03 19:08:00,69.6,66.2,30.02,WSW,246,0.0,0.0,89,0.00,,,0.00,0,Wunderground v.1.15,2013-10-03 23:08:00,
2013-10-03 19:15:00,69.1,66.0,30.02,WSW,246,0.0,0.0,90,0.00,,,0.00,0,Wunderground v.1.15,2013-10-03 23:15:00,
2013-10-03 19:20:00,68.8,66.1,30.02,WSW,246,0.0,0.0,91,0.00,,,0.00,0,Wunderground v.1.15,2013-10-03 23:20:00,
2013-10-03 19:26:00,68.4,65.7,30.02,WSW,246,0.0,0.0,91,0.00,,,0.00,0,Wunderground v.1.15,2013-10-03 23:26:00,
2013-10-03 19:31:00,68.2,65.5,30.02,North,-999,0.0,0.0,91,0.00,,,-99.99,0,WeatherLink 6.0.3,2013-10-03 23:31:00,
2013-10-03 19:37:00,67.9,65.5,30.02,WSW,246,0.0,0.0,92,0.00,,,0.00,0,Wunderground v.1.15,2013-10-03 23:37:00,
2013-10-03 19:43:00,67.7,65.3,30.02,WSW,246,0.0,0.0,92,0.00,,,0.00,0,Wunderground v.1.15,2013-10-03 23:43:00,
2013-10-03 19:48:00,67.6,65.5,30.03,WSW,246,0.0,0.0,93,0.00,,,0.00,0,Wunderground v.1.15,2013-10-03 23:48:00,
2013-10-03 19:54:00,67.5,65.4,30.02,WSW,246,0.0,0.0,93,0.00,,,0.00,0,Wunderground v.1.15,2013-10-03 23:54:00,
2013-10-03 19:59:00,67.4,65.3,30.03,WSW,246,0.0,0.0,93,0.00,,,0.00,0,Wunderground v.1.15,2013-10-03 23:59:00,
2013-10-03 20:05:00,67.2,65.1,30.03,WSW,246,0.0,0.0,93,0.00,,,0.00,0,Wunderground v.1.15,2013-10-04 00:05:00,
2013-10-03 20:11:00,67.1,65.3,30.03,WSW,246,0.0,0.0,94,0.00,,,0.00,0,Wunderground v.1.15,2013-10-04 00:11:00,
2013-10-03 20:17:00,67.0,65.2,30.03,WSW,246,0.0,0.0,94,0.00,,,0.00,0,Wunderground v.1.15,2013-10-04 00:17:00,
2013-10-03 20:22:00,66.8,65.0,30.03,WSW,246,0.0,0.0,94,0.00,,,0.00,0,Wunderground v.1.15,2013-10-04 00:22:00,
2013-10-03 20:28:00,66.8,65.0,30.03,WSW,246,0.0,0.0,94,0.00,,,0.00,0,Wunderground v.1.15,2013-10-04 00:28:00,
2013-10-03 20:33:00,66.7,65.2,30.03,WSW,246,0.0,0.0,95,0.00,,,0.00,0,Wunderground v.1.15,2013-10-04 00:33:00,
2013-10-03 20:40:00,66.9,65.4,30.05,WSW,246,0.0,0.0,95,0.00,,,0.00,0,Wunderground v.1.15,2013-10-04 00:40:00,
2013-10-03 20:45:00,67.1,65.9,30.05,NNW,331,0.0,11.0,96,0.00,,,0.00,0,Wunderground v.1.15,2013-10-04 00:45:00,
2013-10-03 20:51:00,67.9,66.7,30.05,NNW,339,1.0,1.0,96,0.00,,,0.00,0,Wunderground v.1.15,2013-10-04 00:51:00,
2013-10-03 20:57:00,68.4,67.2,30.06,NW,324,0.0,1.0,96,0.00,,,0.01,0,Wunderground v.1.15,2013-10-04 00:57:00,
2013-10-03 21:01:00,68.6,67.1,30.06,NW,324,0.0,0.0,95,0.20,,,0.03,0,Wunderground v.1.15,2013-10-04 01:01:00,
2013-10-03 21:07:00,68.5,67.0,30.06,NW,324,0.0,0.0,95,0.21,,,0.05,0,Wunderground v.1.15,2013-10-04 01:07:00,
2013-10-03 21:14:00,68.4,66.9,30.06,NW,324,0.0,0.0,95,0.13,,,0.07,0,Wunderground v.1.15,2013-10-04 01:14:00,
2013-10-03 21:19:00,68.3,66.8,30.06,NW,324,0.0,0.0,95,0.09,,,0.07,0,Wunderground v.1.15,2013-10-04 01:19:00,
2013-10-03 21:25:00,68.2,66.7,30.06,NW,324,0.0,0.0,95,0.05,,,0.07,0,Wunderground v.1.15,2013-10-04 01:25:00,
2013-10-03 21:30:00,68.1,66.6,30.06,NW,324,0.0,0.0,95,0.00,,,0.07,0,Wunderground v.1.15,2013-10-04 01:30:00,
2013-10-03 21:36:00,67.9,66.4,30.06,NW,324,0.0,0.0,95,0.00,,,0.07,0,Wunderground v.1.15,2013-10-04 01:36:00,
2013-10-03 21:42:00,67.8,66.3,30.06,NW,324,0.0,0.0,95,0.00,,,0.07,0,Wunderground v.1.15,2013-10-04 01:42:00,
2013-10-03 21:47:00,67.6,66.1,30.06,NW,324,0.0,0.0,95,0.00,,,0.07,0,Wunderground v.1.15,2013-10-04 01:47:00,
2013-10-03 21:52:00,67.4,65.9,30.06,NW,324,0.0,0.0,95,0.00,,,0.07,0,Wunderground v.1.15,2013-10-04 01:52:00,
2013-10-03 21:58:00,67.2,65.7,30.06,NW,324,0.0,0.0,95,0.00,,,0.07,0,Wunderground v.1.15,2013-10-04 01:58:00,
2013-10-03 22:03:00,67.0,65.5,30.06,NW,324,0.0,0.0,95,0.00,,,0.07,0,Wunderground v.1.15,2013-10-04 02:03:00,
2013-10-03 22:09:00,66.8,65.3,30.06,NW,324,0.0,0.0,95,0.00,,,0.07,0,Wunderground v.1.15,2013-10-04 02:09:00,
2013-10-03 22:14:00,66.6,65.1,30.06,NW,324,0.0,0.0,95,0.00,,,0.07,0,Wunderground v.1.15,2013-10-04 02:14:00,
2013-10-03 22:20:00,66.4,65.2,30.06,NW,324,0.0,0.0,96,0.00,,,0.07,0,Wunderground v.1.15,2013-10-04 02:20:00,
2013-10-03 22:27:00,66.1,64.9,30.06,NW,324,0.0,0.0,96,0.00,,,0.07,0,Wunderground v.1.15,2013-10-04 02:27:00,
2013-10-03 22:32:00,66.0,64.8,30.06,NW,324,0.0,0.0,96,0.00,,,0.07,0,Wunderground v.1.15,2013-10-04 02:32:00,
2013-10-03 22:38:00,65.9,64.7,30.06,NW,324,0.0,0.0,96,0.00,,,0.07,0,Wunderground v.1.15,2013-10-04 02:38:00,
2013-10-03 22:44:00,65.9,64.7,30.06,NW,324,0.0,0.0,96,0.00,,,0.07,0,Wunderground v.1.15,2013-10-04 02:44:00,
2013-10-03 22:49:00,65.9,64.7,30.06,NW,324,0.0,0.0,96,0.00,,,0.07,0,Wunderground v.1.15,2013-10-04 02:49:00,
2013-10-03 22:55:00,65.8,64.6,30.06,NW,324,0.0,0.0,96,0.00,,,0.07,0,Wunderground v.1.15,2013-10-04 02:55:00,
2013-10-03 23:01:00,65.8,64.9,30.06,NW,324,0.0,0.0,97,0.00,,,0.07,0,Wunderground v.1.15,2013-10-04 03:01:00,
2013-10-03 23:06:00,65.8,64.9,30.05,NW,324,0.0,0.0,97,0.00,,,0.07,0,Wunderground v.1.15,2013-10-04 03:06:00,
2013-10-03 23:12:00,65.6,64.4,30.05,NW,324,0.0,0.0,96,0.00,,,0.07,0,Wunderground v.1.15,2013-10-04 03:12:00,
2013-10-03 23:17:00,65.6,64.4,30.05,NW,324,0.0,0.0,96,0.00,,,0.07,0,Wunderground v.1.15,2013-10-04 03:17:00,
2013-10-03 23:24:00,65.4,64.2,30.05,NW,324,0.0,0.0,96,0.00,,,0.07,0,Wunderground v.1.15,2013-10-04 03:24:00,
2013-10-03 23:29:00,65.3,64.1,30.05,NW,324,0.0,0.0,96,0.00,,,0.07,0,Wunderground v.1.15,2013-10-04 03:29:00,
2013-10-03 23:34:00,65.1,64.2,30.05,NW,324,0.0,0.0,97,0.00,,,0.07,0,Wunderground v.1.15,2013-10-04 03:34:00,
2013-10-03 23:40:00,65.0,63.8,30.06,NW,324,0.0,0.0,96,0.00,,,0.07,0,Wunderground v.1.15,2013-10-04 03:40:00,
2013-10-03 23:46:00,64.9,63.7,30.06,NW,324,0.0,0.0,96,0.00,,,0.07,0,Wunderground v.1.15,2013-10-04 03:46:00,
2013-10-03 23:51:00,64.9,64.0,30.06,NW,324,0.0,0.0,97,0.00,,,0.07,0,Wunderground v.1.15,2013-10-04 03:51:00,
2013-10-03 23:57:00,64.9,64.0,30.06,NW,324,0.0,0.0,97,0.00,,,0.07,0,Wunderground v.1.15,2013-10-04 03:57:00,